Time;durP1;ratioP1;P1;durP2;ratioP2;P2;SDS_P1;SDS_P2;PMS_P1;PMS_P2;Temp;Humidity;BMP_temperature;BMP_pressure;BME280_temperature;BME280_humidity;BME280_pressure;Samples;Min_cycle;Max_cycle;Signal;HPM_P1;HPM_P2
2023/09/11 00:00:33;;;;;;;3.80;2.70;;;;;;;8.95;74.81;99342.62;105635;1251;61074;-23
2023/09/11 00:03:01;;;;;;;5.50;2.00;;;;;;;8.74;75.43;99336.43;105720;1258;61100;-23
2023/09/11 00:05:29;;;;;;;4.50;2.40;;;;;;;9.14;76.11;99336.96;105833;1257;73815;-23
2023/09/11 00:07:56;;;;;;;9.40;3.10;;;;;;;9.70;75.08;99333.89;105935;1256;74297;-23
2023/09/11 00:10:23;;;;;;;5.70;3.10;;;;;;;9.79;74.88;99335.99;105728;1251;72680;-23
2023/09/11 00:12:50;;;;;;;7.30;3.20;;;;;;;9.61;74.84;99333.44;105926;1257;61028;-23
2023/09/11 00:15:17;;;;;;;5.00;3.10;;;;;;;9.37;75.15;99331.37;105934;1257;61112;-23
2023/09/11 00:17:44;;;;;;;8.10;4.10;;;;;;;9.10;75.34;99332.89;105959;1256;73533;-23
2023/09/11 00:20:11;;;;;;;7.50;4.40;;;;;;;8.85;75.78;99327.21;105946;1257;74476;-23
2023/09/11 00:22:38;;;;;;;5.60;3.70;;;;;;;8.60;76.41;99326.15;105958;1257;72554;-23
2023/09/11 00:25:07;;;;;;;3.90;2.70;;;;;;;8.40;77.41;99325.20;105915;1251;62113;-23
2023/09/11 00:27:36;;;;;;;4.60;3.00;;;;;;;8.84;77.64;99318.63;105845;1257;61236;-23
2023/09/11 00:30:05;;;;;;;7.20;3.50;;;;;;;9.41;76.50;99316.88;105754;1259;72683;-23
2023/09/11 00:32:33;;;;;;;6.60;4.00;;;;;;;9.52;75.33;99320.57;105984;1257;73297;-23
2023/09/11 00:35:00;;;;;;;7.50;3.80;;;;;;;9.38;74.34;99324.54;105845;1260;72755;-23
2023/09/11 00:37:27;;;;;;;4.30;3.00;;;;;;;9.07;73.61;99322.56;105869;1257;61192;-23
2023/09/11 00:39:55;;;;;;;5.60;3.30;;;;;;;8.73;74.56;99319.73;105895;1257;61125;-23
2023/09/11 00:42:22;;;;;;;7.00;3.50;;;;;;;8.45;76.20;99323.01;105970;1256;73697;-23
2023/09/11 00:44:49;;;;;;;8.00;3.80;;;;;;;8.23;76.78;99323.95;105880;1251;74336;-23
2023/09/11 00:47:16;;;;;;;5.70;2.80;;;;;;;8.08;77.50;99319.27;105702;1251;72831;-23
2023/09/11 00:49:43;;;;;;;5.00;2.70;;;;;;;8.55;78.50;99317.86;105910;1251;61281;-23
2023/09/11 00:52:10;;;;;;;8.70;3.00;;;;;;;9.15;76.48;99312.31;105839;1257;61231;-23
2023/09/11 00:54:37;;;;;;;8.50;2.60;;;;;;;9.28;75.51;99312.05;105938;1251;73727;-23
2023/09/11 00:57:05;;;;;;;6.90;2.90;;;;;;;9.17;75.39;99314.42;105848;1255;74181;-23
2023/09/11 00:59:33;;;;;;;6.20;3.40;;;;;;;8.95;74.04;99314.70;105655;1260;71630;-23
2023/09/11 01:02:00;;;;;;;10.40;3.80;;;;;;;8.71;73.93;99316.23;105832;1256;61489;-23
2023/09/11 01:04:28;;;;;;;6.00;3.70;;;;;;;8.49;74.64;99314.79;105901;1251;61048;-23
2023/09/11 01:06:56;;;;;;;9.90;4.00;;;;;;;8.27;75.44;99317.63;105791;1251;73875;-25
2023/09/11 01:09:23;;;;;;;4.60;2.30;;;;;;;8.09;75.72;99313.46;105736;1259;74125;-24
2023/09/11 01:11:50;;;;;;;9.30;2.90;;;;;;;8.47;76.47;99310.56;105882;1253;72686;-23
2023/09/11 01:14:18;;;;;;;10.00;3.90;;;;;;;9.00;74.68;99315.12;105748;1251;61150;-23
2023/09/11 01:17:13;;;;;;;8.00;3.30;;;;;;;9.07;73.75;99317.24;105936;1255;61094;-23
2023/09/11 01:20:09;;;;;;;9.80;4.20;;;;;;;8.85;73.91;99315.29;105729;1251;73879;-23
2023/09/11 01:22:37;;;;;;;7.70;3.50;;;;;;;8.58;74.88;99309.52;105887;1251;74516;-23
2023/09/11 01:25:10;;;;;;;11.90;4.00;;;;;;;8.38;75.74;99307.92;105885;1257;72695;-23
2023/09/11 01:28:13;;;;;;;10.70;4.30;;;;;;;8.17;76.34;99303.23;105772;1251;61154;-23
2023/09/11 01:30:40;;;;;;;3.00;1.80;;;;;;;8.01;76.87;99302.95;105790;1257;61221;-23
2023/09/11 01:33:07;;;;;;;4.80;2.30;;;;;;;8.60;76.92;99302.45;105837;1252;73768;-23
2023/09/11 01:35:35;;;;;;;6.40;2.50;;;;;;;9.16;75.51;99298.73;105689;1254;74451;-23
2023/09/11 01:38:02;;;;;;;3.70;2.10;;;;;;;9.19;74.53;99295.42;105545;1251;72695;-23
2023/09/11 01:40:29;;;;;;;4.40;2.10;;;;;;;9.00;74.23;99300.39;105827;1254;61168;-23
2023/09/11 01:42:56;;;;;;;8.90;2.30;;;;;;;8.71;74.31;99302.56;105722;1260;61189;-23
2023/09/11 01:45:24;;;;;;;5.20;3.10;;;;;;;8.43;74.55;99296.33;105891;1254;73850;-23
2023/09/11 01:47:51;;;;;;;5.70;2.70;;;;;;;8.17;75.15;99299.63;105546;1257;74259;-23
2023/09/11 01:50:20;;;;;;;6.60;3.40;;;;;;;7.93;76.11;99296.40;105682;1254;72666;-23
2023/09/11 01:52:49;;;;;;;3.10;1.80;;;;;;;7.77;76.98;99295.55;105765;1257;61901;-23
2023/09/11 01:55:16;;;;;;;5.00;2.10;;;;;;;8.19;77.66;99295.16;105725;1251;61030;-23
2023/09/11 01:57:43;;;;;;;6.40;3.00;;;;;;;8.76;76.99;99297.52;105919;1251;73763;-23
2023/09/11 02:00:11;;;;;;;4.80;2.40;;;;;;;8.87;75.86;99298.70;105827;1254;74197;-23
2023/09/11 02:02:40;;;;;;;4.10;2.60;;;;;;;8.74;75.86;99294.38;105719;1257;71536;-23
2023/09/11 02:05:08;;;;;;;10.00;2.60;;;;;;;8.55;76.00;99289.47;105891;1251;61052;-23
2023/09/11 02:07:36;;;;;;;8.10;2.80;;;;;;;8.33;76.26;99282.79;105751;1251;61096;-23
2023/09/11 02:10:04;;;;;;;5.80;3.30;;;;;;;8.13;76.63;99280.16;105930;1251;73676;-23
2023/09/11 02:12:31;;;;;;;6.00;2.20;;;;;;;7.96;76.82;99283.73;105669;1257;74396;-23
2023/09/11 02:14:58;;;;;;;6.40;2.70;;;;;;;8.36;77.40;99283.48;105601;1254;71754;-23
2023/09/11 02:17:25;;;;;;;5.30;3.20;;;;;;;8.90;76.12;99285.85;105790;1251;60976;-23
2023/09/11 02:19:53;;;;;;;4.40;2.50;;;;;;;8.97;75.14;99281.21;105696;1257;61176;-23
2023/09/11 02:22:20;;;;;;;6.80;2.90;;;;;;;8.80;74.97;99279.59;105487;1251;73867;-23
2023/09/11 02:24:47;;;;;;;8.10;3.20;;;;;;;8.57;75.03;99281.20;105584;1251;74514;-23
2023/09/11 02:27:14;;;;;;;8.30;3.90;;;;;;;8.32;75.51;99277.66;105728;1254;72794;-23
2023/09/11 02:29:41;;;;;;;7.40;3.10;;;;;;;8.07;76.26;99277.27;105734;1257;61130;-23
2023/09/11 02:32:08;;;;;;;4.50;3.10;;;;;;;7.84;76.42;99279.16;105719;1256;61114;-23
2023/09/11 02:34:36;;;;;;;4.20;2.60;;;;;;;7.69;77.11;99273.27;105697;1251;73552;-23
2023/09/11 02:37:03;;;;;;;4.30;2.20;;;;;;;8.13;77.96;99279.81;105713;1257;74405;-23
2023/09/11 02:39:31;;;;;;;7.00;2.80;;;;;;;8.69;76.23;99278.97;105888;1254;72467;-24
2023/09/11 02:41:58;;;;;;;4.90;2.80;;;;;;;8.78;74.88;99281.11;105962;1256;61160;-25
2023/09/11 02:44:25;;;;;;;8.80;2.20;;;;;;;8.63;74.98;99282.16;105653;1257;61121;-24
2023/09/11 02:46:52;;;;;;;5.50;2.50;;;;;;;8.44;75.55;99282.93;105725;1251;73724;-24
2023/09/11 02:49:20;;;;;;;4.70;2.80;;;;;;;8.24;75.96;99283.23;105735;1256;74137;-25
2023/09/11 02:51:47;;;;;;;6.80;2.90;;;;;;;8.05;75.97;99280.19;105929;1251;72780;-25
2023/09/11 02:54:14;;;;;;;4.40;3.10;;;;;;;7.87;76.49;99278.29;105741;1251;61020;-24
2023/09/11 02:56:41;;;;;;;5.80;2.20;;;;;;;7.72;77.26;99276.11;105734;1257;61106;-24
2023/09/11 02:59:08;;;;;;;8.40;4.20;;;;;;;8.16;77.68;99274.09;105754;1251;73891;-24
2023/09/11 03:01:35;;;;;;;12.10;6.50;;;;;;;8.74;76.52;99276.21;105716;1256;74220;-24
2023/09/11 03:04:03;;;;;;;8.10;4.10;;;;;;;8.86;75.29;99276.98;105728;1255;72725;-24
2023/09/11 03:06:30;;;;;;;4.90;2.90;;;;;;;8.70;74.89;99277.35;105614;1254;62186;-24
2023/09/11 03:08:58;;;;;;;5.80;3.60;;;;;;;8.47;75.22;99274.63;105612;1257;61173;-24
2023/09/11 03:11:25;;;;;;;9.10;4.80;;;;;;;8.21;75.59;99271.52;105774;1251;73902;-23
2023/09/11 03:13:52;;;;;;;6.90;4.00;;;;;;;7.95;76.04;99270.49;105824;1257;74183;-24
2023/09/11 03:16:19;;;;;;;8.90;4.70;;;;;;;7.74;76.32;99270.33;105712;1254;72483;-24
2023/09/11 03:18:50;;;;;;;6.00;3.00;;;;;;;7.58;76.92;99271.05;105700;1254;61048;-24
2023/09/11 03:21:17;;;;;;;5.00;2.30;;;;;;;8.02;77.19;99273.30;105545;1258;61221;-24
2023/09/11 03:23:45;;;;;;;9.30;2.80;;;;;;;8.59;76.05;99275.52;105833;1251;73544;-24
2023/09/11 03:26:14;;;;;;;9.90;3.30;;;;;;;8.67;75.24;99274.31;105808;1257;74414;-24
2023/09/11 03:28:50;;;;;;;7.50;3.80;;;;;;;8.51;75.09;99269.65;105592;1251;71540;-24
2023/09/11 03:31:20;;;;;;;6.30;3.50;;;;;;;8.28;75.37;99268.13;105684;1254;61017;-24
2023/09/11 03:33:47;;;;;;;6.80;3.70;;;;;;;8.03;75.70;99270.42;105649;1256;62923;-24
2023/09/11 03:36:18;;;;;;;8.50;3.40;;;;;;;7.83;76.14;99271.10;105951;1251;73622;-23
2023/09/11 03:38:45;;;;;;;4.80;2.30;;;;;;;7.66;76.79;99267.20;105675;1254;74434;-24
2023/09/11 03:41:14;;;;;;;5.50;2.90;;;;;;;8.04;77.15;99264.33;105850;1257;70942;-24
2023/09/11 03:43:41;;;;;;;6.30;3.00;;;;;;;8.59;76.21;99263.59;105690;1251;61634;-24
2023/09/11 03:46:12;;;;;;;21.20;5.10;;;;;;;8.71;75.46;99260.33;105850;1256;61215;-24
2023/09/11 03:48:41;;;;;;;10.80;4.50;;;;;;;8.58;75.16;99263.80;105705;1259;73857;-24
2023/09/11 03:51:09;;;;;;;16.80;5.20;;;;;;;8.38;75.36;99263.75;105722;1260;74491;-24
2023/09/11 03:53:42;;;;;;;17.60;6.10;;;;;;;8.19;75.90;99262.30;105837;1251;72696;-24
2023/09/11 03:56:10;;;;;;;12.90;4.80;;;;;;;8.04;76.18;99263.98;105790;1257;61103;-24
2023/09/11 03:58:38;;;;;;;8.90;3.30;;;;;;;7.89;76.70;99265.70;105757;1257;61263;-24
2023/09/11 04:01:06;;;;;;;8.80;2.90;;;;;;;8.30;77.10;99269.52;105752;1257;72689;-24
2023/09/11 04:03:34;;;;;;;8.80;3.60;;;;;;;8.90;75.75;99270.92;105915;1252;74457;-23
2023/09/11 04:06:01;;;;;;;7.90;3.50;;;;;;;9.05;74.54;99264.36;105737;1254;72534;-23
2023/09/11 04:08:30;;;;;;;11.50;3.50;;;;;;;8.95;74.19;99263.16;105888;1251;61194;-23
2023/09/11 04:10:57;;;;;;;7.70;3.20;;;;;;;8.81;74.20;99261.05;105832;1256;61154;-23
2023/09/11 04:13:24;;;;;;;6.80;2.90;;;;;;;8.68;74.24;99257.77;105985;1251;73726;-23
2023/09/11 04:15:51;;;;;;;4.90;2.70;;;;;;;8.58;74.03;99254.47;105894;1253;74487;-23
2023/09/11 04:18:18;;;;;;;7.30;2.90;;;;;;;8.55;74.45;99254.18;105768;1251;72514;-23
2023/09/11 04:20:46;;;;;;;6.00;2.20;;;;;;;8.59;74.48;99255.11;105600;1254;61833;-23
2023/09/11 04:23:14;;;;;;;9.20;2.50;;;;;;;9.24;74.85;99252.05;105660;1256;61477;-23
2023/09/11 04:25:43;;;;;;;8.50;3.00;;;;;;;10.04;72.71;99253.46;105712;1258;73882;-23
2023/09/11 04:28:11;;;;;;;14.40;3.30;;;;;;;10.29;71.29;99251.06;105699;1259;74301;-23
2023/09/11 04:30:38;;;;;;;13.50;3.90;;;;;;;10.24;70.73;99248.80;105828;1254;72540;-23
2023/09/11 04:33:06;;;;;;;15.60;3.60;;;;;;;10.14;70.64;99254.25;105902;1251;61223;-23
2023/09/11 04:35:33;;;;;;;20.30;5.20;;;;;;;10.06;70.91;99248.15;105775;1252;61102;-26
2023/09/11 04:38:00;;;;;;;19.40;9.00;;;;;;;9.95;71.19;99245.81;105742;1251;73694;-25
2023/09/11 04:40:28;;;;;;;18.70;7.80;;;;;;;9.88;71.79;99245.50;105710;1251;74172;-23
2023/09/11 04:42:55;;;;;;;18.40;8.30;;;;;;;9.82;72.32;99243.33;105760;1254;72615;-23
2023/09/11 04:45:22;;;;;;;8.80;3.40;;;;;;;9.80;72.20;99239.98;105799;1254;61900;-23
2023/09/11 04:47:49;;;;;;;9.00;3.10;;;;;;;10.38;72.25;99240.98;106005;1257;61188;-23
2023/09/11 04:50:17;;;;;;;12.20;2.90;;;;;;;11.15;70.23;99237.24;105773;1251;73680;-23
2023/09/11 04:52:44;;;;;;;8.80;3.50;;;;;;;11.49;69.26;99236.46;105853;1251;74271;-23
2023/09/11 04:55:11;;;;;;;11.50;3.40;;;;;;;11.61;68.52;99233.20;105755;1251;72561;-23
2023/09/11 04:57:40;;;;;;;16.10;3.50;;;;;;;11.63;68.08;99233.70;105812;1253;61130;-24
2023/09/11 05:00:11;;;;;;;11.60;3.60;;;;;;;11.56;67.90;99231.84;105763;1254;61192;-24
2023/09/11 05:02:40;;;;;;;9.80;3.60;;;;;;;11.45;67.56;99229.96;105670;1251;73879;-24
2023/09/11 05:05:07;;;;;;;7.10;2.80;;;;;;;11.32;67.58;99229.98;105805;1251;74231;-24
2023/09/11 05:07:34;;;;;;;7.80;4.00;;;;;;;11.27;67.68;99229.02;105678;1254;72582;-22
2023/09/11 05:10:05;;;;;;;9.70;5.40;;;;;;;11.32;67.75;99225.26;105935;1251;61122;-24
2023/09/11 05:12:32;;;;;;;13.20;8.10;;;;;;;11.45;68.08;99221.10;105412;1260;61096;-23
2023/09/11 05:14:59;;;;;;;7.70;4.60;;;;;;;11.56;67.62;99219.38;105951;1251;73853;-24
2023/09/11 05:17:27;;;;;;;12.10;4.30;;;;;;;11.61;66.99;99217.41;105745;1256;74683;-23
2023/09/11 05:19:54;;;;;;;8.10;4.30;;;;;;;11.62;67.01;99217.27;105772;1254;73113;-23
2023/09/11 05:22:21;;;;;;;10.40;4.00;;;;;;;11.60;66.81;99215.16;105736;1254;61102;-23
2023/09/11 05:24:49;;;;;;;8.70;4.60;;;;;;;11.62;67.16;99214.38;105755;1256;61099;-23
2023/09/11 05:27:16;;;;;;;7.90;4.00;;;;;;;11.67;66.65;99217.37;105854;1251;73933;-23
2023/09/11 05:29:44;;;;;;;8.20;3.80;;;;;;;11.79;66.07;99214.86;105568;1256;74466;-23
2023/09/11 05:32:11;;;;;;;3.30;2.50;;;;;;;11.97;66.23;99214.40;105767;1257;72922;-25
2023/09/11 05:34:38;;;;;;;5.20;2.70;;;;;;;12.75;65.63;99214.36;105641;1254;61156;-24
2023/09/11 05:37:05;;;;;;;6.80;3.20;;;;;;;13.66;63.50;99217.31;105761;1256;61166;-23
2023/09/11 05:39:32;;;;;;;6.90;3.20;;;;;;;14.06;61.49;99218.31;105920;1251;73671;-23
2023/09/11 05:41:59;;;;;;;7.50;4.10;;;;;;;14.22;60.52;99213.89;105779;1251;74486;-23
2023/09/11 05:44:26;;;;;;;6.70;3.80;;;;;;;14.26;61.01;99212.61;105929;1251;72498;-23
2023/09/11 05:46:54;;;;;;;9.70;3.80;;;;;;;14.28;60.63;99214.73;105937;1251;61091;-24
2023/09/11 05:49:21;;;;;;;6.30;3.30;;;;;;;14.28;60.46;99215.73;105805;1257;61140;-23
2023/09/11 05:51:48;;;;;;;5.10;3.40;;;;;;;14.28;60.68;99218.73;105893;1251;73878;-23
2023/09/11 05:54:15;;;;;;;7.20;3.10;;;;;;;14.25;60.35;99219.20;105920;1251;73771;-22
2023/09/11 05:56:43;;;;;;;8.60;3.20;;;;;;;14.22;60.28;99216.34;105930;1256;73189;-23
2023/09/11 05:59:10;;;;;;;10.50;3.20;;;;;;;14.23;59.63;99219.05;105946;1251;61099;-23
2023/09/11 06:01:37;;;;;;;7.60;3.10;;;;;;;14.24;59.17;99218.46;105990;1257;61050;-23
2023/09/11 06:04:05;;;;;;;6.60;3.00;;;;;;;14.24;58.58;99220.30;105616;1251;73685;-23
2023/09/11 06:06:34;;;;;;;7.50;3.10;;;;;;;14.31;57.87;99219.67;105965;1251;73205;-25
2023/09/11 06:09:03;;;;;;;5.00;2.70;;;;;;;14.34;57.85;99219.55;105906;1251;71496;-23
2023/09/11 06:11:30;;;;;;;7.20;2.80;;;;;;;14.40;57.09;99222.98;105849;1251;61029;-23
2023/09/11 06:14:18;;;;;;;5.10;2.40;;;;;;;14.40;57.09;99224.73;105944;1256;61126;-23
2023/09/11 06:16:45;;;;;;;6.30;2.80;;;;;;;14.48;57.14;99226.52;105211;1260;74642;-23
2023/09/11 06:19:13;;;;;;;4.30;2.50;;;;;;;14.52;57.19;99222.83;105234;1260;74344;-23
2023/09/11 06:21:44;;;;;;;7.90;2.60;;;;;;;14.57;56.64;99224.06;105143;1260;72708;-23
2023/09/11 06:24:12;;;;;;;4.80;2.50;;;;;;;14.62;57.03;99226.02;105020;1260;61187;-23
2023/09/11 06:26:41;;;;;;;5.70;3.10;;;;;;;14.69;56.16;99232.77;105035;1267;61153;-23
2023/09/11 06:29:08;;;;;;;3.90;2.40;;;;;;;14.73;56.33;99230.79;105159;1260;73955;-23
2023/09/11 06:31:35;;;;;;;7.40;2.60;;;;;;;14.83;56.64;99232.32;105198;1260;74480;-24
2023/09/11 06:34:03;;;;;;;5.40;2.10;;;;;;;14.96;56.56;99231.25;104847;1261;72560;-23
2023/09/11 06:36:30;;;;;;;4.20;2.40;;;;;;;15.15;56.12;99233.09;104832;1260;61209;-23
2023/09/11 06:38:57;;;;;;;3.50;2.10;;;;;;;15.41;55.34;99230.92;105104;1265;61127;-23
2023/09/11 06:41:25;;;;;;;5.10;2.70;;;;;;;15.65;54.07;99224.83;105208;1259;73999;-23
2023/09/11 06:43:52;;;;;;;5.10;2.50;;;;;;;15.86;53.77;99228.68;105037;1261;74538;-23
2023/09/11 06:46:19;;;;;;;4.50;2.70;;;;;;;16.11;53.50;99225.67;104954;1261;71764;-23
2023/09/11 06:48:46;;;;;;;6.80;2.60;;;;;;;16.36;53.23;99227.33;105132;1260;61427;-23
2023/09/11 06:51:14;;;;;;;5.90;2.80;;;;;;;16.52;52.26;99228.36;105129;1261;61291;-23
2023/09/11 06:53:41;;;;;;;4.40;2.70;;;;;;;16.62;51.09;99223.60;105283;1254;73616;-23
2023/09/11 06:56:08;;;;;;;6.90;2.30;;;;;;;16.82;52.27;99226.48;105791;1255;74231;-23
2023/09/11 06:58:38;;;;;;;6.50;2.40;;;;;;;17.16;51.79;99225.44;105950;1251;72495;-23
2023/09/11 07:01:07;;;;;;;6.00;2.40;;;;;;;17.49;50.64;99222.64;105931;1254;61045;-23
2023/09/11 07:03:35;;;;;;;5.20;2.80;;;;;;;17.69;50.23;99221.04;105842;1251;61154;-23
2023/09/11 07:06:03;;;;;;;5.30;2.40;;;;;;;18.00;50.44;99219.96;105979;1251;73845;-23
2023/09/11 07:08:30;;;;;;;4.40;2.30;;;;;;;18.23;48.30;99218.96;105734;1251;74472;-23
2023/09/11 07:10:57;;;;;;;4.30;2.20;;;;;;;18.55;48.90;99218.30;105742;1255;72536;-23
2023/09/11 07:13:24;;;;;;;3.80;2.10;;;;;;;18.92;48.09;99218.96;105734;1251;61085;-23
2023/09/11 07:15:58;;;;;;;6.00;2.00;;;;;;;19.30;47.90;99215.09;105873;1255;61128;-23
2023/09/11 07:18:26;;;;;;;4.40;2.40;;;;;;;19.73;46.59;99212.82;105560;1254;73715;-23
2023/09/11 07:20:53;;;;;;;2.80;2.10;;;;;;;20.10;45.96;99216.58;105603;1251;74557;-23
2023/09/11 07:23:22;;;;;;;4.30;2.30;;;;;;;20.34;44.59;99215.36;105604;1251;72503;-23
2023/09/11 07:25:52;;;;;;;4.10;2.20;;;;;;;20.27;44.28;99214.63;105874;1252;61150;-23
2023/09/11 07:28:20;;;;;;;4.70;2.10;;;;;;;20.46;45.71;99216.04;105755;1251;61282;-23
2023/09/11 07:30:47;;;;;;;4.90;2.30;;;;;;;20.69;44.92;99215.23;106003;1251;74479;-23
2023/09/11 07:33:14;;;;;;;6.90;2.10;;;;;;;20.75;43.31;99215.48;105927;1251;74399;-23
2023/09/11 07:35:42;;;;;;;8.20;2.30;;;;;;;20.76;44.04;99217.44;105723;1254;72701;-23
2023/09/11 07:38:09;;;;;;;3.30;2.00;;;;;;;20.82;43.64;99218.25;105860;1251;61140;-23
2023/09/11 07:40:36;;;;;;;6.60;2.40;;;;;;;20.98;43.03;99215.84;105747;1251;61147;-23
2023/09/11 07:43:04;;;;;;;3.40;1.70;;;;;;;21.17;42.51;99210.15;105885;1251;75438;-23
2023/09/11 07:45:31;;;;;;;4.00;1.70;;;;;;;21.22;42.34;99210.18;105580;1253;73192;-24
2023/09/11 07:47:58;;;;;;;6.80;1.80;;;;;;;21.36;42.95;99207.62;105685;1251;72424;-23
2023/09/11 07:50:25;;;;;;;4.30;1.90;;;;;;;21.52;42.50;99205.73;105765;1254;61184;-23
2023/09/11 07:52:53;;;;;;;3.20;2.00;;;;;;;21.67;41.69;99205.70;105961;1252;61154;-23
2023/09/11 07:55:20;;;;;;;6.70;2.30;;;;;;;21.77;41.23;99209.36;105995;1251;73959;-23
2023/09/11 07:57:49;;;;;;;3.00;1.70;;;;;;;21.91;41.05;99203.41;105805;1253;74512;-23
2023/09/11 08:00:16;;;;;;;4.00;1.80;;;;;;;21.74;39.26;99205.38;105637;1255;71494;-23
2023/09/11 08:02:43;;;;;;;6.90;1.90;;;;;;;21.64;40.81;99198.88;105787;1251;61012;-23
2023/09/11 08:05:10;;;;;;;3.30;1.50;;;;;;;21.82;39.96;99201.55;105748;1254;61947;-23
2023/09/11 08:07:38;;;;;;;4.80;1.70;;;;;;;21.99;39.85;99199.58;105792;1251;72846;-23
2023/09/11 08:10:06;;;;;;;3.10;1.60;;;;;;;22.18;40.01;99199.16;105917;1251;74414;-23
2023/09/11 08:12:33;;;;;;;5.20;1.90;;;;;;;22.37;39.24;99196.02;105739;1253;70318;-23
2023/09/11 08:15:01;;;;;;;3.90;1.60;;;;;;;22.52;38.61;99193.13;105671;1254;61233;-23
2023/09/11 08:17:29;;;;;;;2.60;1.60;;;;;;;22.71;38.61;99192.60;105840;1256;61169;-23
2023/09/11 08:19:57;;;;;;;3.60;2.10;;;;;;;22.86;37.64;99194.42;105835;1254;73950;-23
2023/09/11 08:22:24;;;;;;;3.30;1.90;;;;;;;23.05;38.00;99193.70;105706;1254;74467;-23
2023/09/11 08:24:51;;;;;;;10.10;2.00;;;;;;;23.25;37.17;99189.77;105846;1251;72543;-23
2023/09/11 08:27:20;;;;;;;5.10;1.80;;;;;;;23.44;36.57;99186.13;105949;1251;61098;-24
2023/09/11 08:29:48;;;;;;;5.90;1.60;;;;;;;23.54;35.82;99186.80;103459;1251;3080459;-23
2023/09/11 08:32:15;;;;;;;11.80;1.90;;;;;;;23.48;35.62;99184.23;105575;1251;61160;-23
2023/09/11 08:34:42;;;;;;;4.90;1.60;;;;;;;23.60;36.44;99181.08;105611;1251;61178;-23
2023/09/11 08:37:09;;;;;;;4.40;1.50;;;;;;;23.71;35.85;99181.18;105903;1257;61176;-23
2023/09/11 08:39:36;;;;;;;4.10;1.50;;;;;;;23.73;35.62;99180.68;105835;1251;61943;-23
2023/09/11 08:42:04;;;;;;;7.00;1.60;;;;;;;23.51;35.25;99179.16;105967;1252;62610;-24
2023/09/11 08:44:32;;;;;;;3.10;1.60;;;;;;;23.60;35.42;99179.48;105769;1251;73764;-23
2023/09/11 08:47:00;;;;;;;4.80;1.40;;;;;;;23.78;35.57;99178.96;105749;1251;75070;-23
2023/09/11 08:49:31;;;;;;;8.00;1.50;;;;;;;23.98;35.34;99170.60;105755;1251;74388;-23
2023/09/11 08:51:59;;;;;;;6.80;1.80;;;;;;;24.17;35.09;99168.01;105693;1251;61227;-23
2023/09/11 08:54:30;;;;;;;4.60;1.50;;;;;;;24.29;34.73;99166.76;105726;1259;61230;-23
2023/09/11 08:56:57;;;;;;;9.20;2.20;;;;;;;24.52;33.85;99166.97;105847;1251;73898;-24
2023/09/11 08:59:25;;;;;;;4.70;1.70;;;;;;;24.53;33.34;99163.89;105824;1254;74252;-23
2023/09/11 09:01:52;;;;;;;9.20;1.60;;;;;;;24.60;34.24;99161.96;105717;1254;74569;-23
2023/09/11 09:04:20;;;;;;;5.80;2.00;;;;;;;24.97;33.95;99158.52;105980;1257;61141;-23
2023/09/11 09:06:48;;;;;;;2.40;1.30;;;;;;;25.36;32.75;99153.13;105824;1257;61103;-24
2023/09/11 09:09:15;;;;;;;5.50;1.60;;;;;;;25.44;31.67;99151.02;105756;1251;75498;-23
2023/09/11 09:11:48;;;;;;;5.80;1.50;;;;;;;25.65;32.19;99148.67;105822;1256;74616;-24
2023/09/11 09:14:17;;;;;;;3.60;1.50;;;;;;;25.88;31.51;99143.41;105596;1255;72507;-23
2023/09/11 09:16:45;;;;;;;7.00;1.60;;;;;;;26.03;31.14;99138.28;105736;1251;61148;-24
2023/09/11 09:19:13;;;;;;;6.30;1.40;;;;;;;26.02;30.85;99139.69;105823;1251;61055;-23
2023/09/11 09:22:02;;;;;;;4.60;2.00;;;;;;;25.37;30.38;99140.96;105846;1251;75426;-24
2023/09/11 09:24:29;;;;;;;4.80;1.50;;;;;;;25.22;31.48;99137.50;105829;1251;74437;-23
2023/09/11 09:26:57;;;;;;;6.70;1.40;;;;;;;25.69;31.65;99138.67;105913;1256;74472;-23
2023/09/11 09:29:24;;;;;;;3.90;1.30;;;;;;;26.12;30.70;99136.81;105725;1251;61176;-23
2023/09/11 09:31:52;;;;;;;2.90;1.20;;;;;;;26.38;30.59;99140.23;105949;1257;61175;-23
2023/09/11 09:34:19;;;;;;;3.10;1.80;;;;;;;26.85;29.68;99137.05;105822;1256;75291;-23
2023/09/11 09:36:53;;;;;;;3.40;1.60;;;;;;;27.30;29.77;99132.84;105702;1251;74422;-24
2023/09/11 09:39:21;;;;;;;2.60;1.30;;;;;;;27.85;29.29;99127.60;105595;1251;72745;-22
2023/09/11 09:41:55;;;;;;;3.50;1.40;;;;;;;27.84;28.15;99127.20;105851;1251;61154;-23
2023/09/11 09:44:39;;;;;;;3.80;1.50;;;;;;;27.71;28.23;99126.92;105702;1252;61116;-21
2023/09/11 09:47:10;;;;;;;1.70;1.20;;;;;;;27.84;28.65;99125.98;105870;1254;74711;-24
2023/09/11 09:49:52;;;;;;;4.10;1.40;;;;;;;28.33;28.57;99126.96;105733;1251;74527;-22
2023/09/11 09:52:20;;;;;;;3.80;1.40;;;;;;;28.67;27.11;99122.85;105812;1251;72543;-22
2023/09/11 09:54:52;;;;;;;7.40;1.50;;;;;;;28.85;26.80;99115.29;105778;1252;62156;-23
2023/09/11 09:57:53;;;;;;;2.90;1.60;;;;;;;29.25;27.01;99112.91;102591;1292;600176;-22
2023/09/11 10:00:21;;;;;;;2.10;1.30;;;;;;;29.60;26.88;99112.31;104735;1276;61191;-22
2023/09/11 10:02:49;;;;;;;3.50;1.70;;;;;;;29.98;26.23;99112.11;104847;1266;61832;-23
2023/09/11 10:05:17;;;;;;;4.10;1.60;;;;;;;30.03;25.65;99108.11;104747;1273;63355;-23
2023/09/11 10:07:45;;;;;;;5.00;1.60;;;;;;;28.87;26.24;99113.84;104813;1272;76209;-23
2023/09/11 10:10:29;;;;;;;5.30;1.30;;;;;;;28.26;27.39;99108.73;104823;1272;74751;-23
2023/09/11 10:13:02;;;;;;;3.30;1.30;;;;;;;28.38;27.90;99107.14;102552;1272;61253;-23
2023/09/11 10:15:31;;;;;;;2.40;1.50;;;;;;;28.46;27.05;99101.21;104856;1268;61168;-22
2023/09/11 10:17:59;;;;;;;7.20;1.80;;;;;;;28.74;27.79;99106.09;104754;1266;70954;-23
2023/09/11 10:20:27;;;;;;;3.30;1.30;;;;;;;29.49;26.89;99101.34;104948;1272;74458;-23
2023/09/11 10:22:56;;;;;;;3.00;1.30;;;;;;;29.89;26.04;99099.30;105436;1262;71429;-23
2023/09/11 10:25:24;;;;;;;5.20;1.60;;;;;;;29.61;26.17;99096.08;105298;1263;61747;-24
2023/09/11 10:27:58;;;;;;;4.30;1.60;;;;;;;29.49;25.79;99089.92;105236;1259;62593;-23
2023/09/11 10:30:26;;;;;;;2.80;1.50;;;;;;;29.24;26.05;99088.77;105262;1260;75888;-24
2023/09/11 10:33:00;;;;;;;2.40;1.40;;;;;;;28.81;26.60;99087.51;105155;1261;75795;-23
2023/09/11 10:35:30;;;;;;;3.40;1.60;;;;;;;28.63;26.96;99086.52;105245;1265;74467;-23
2023/09/11 10:37:58;;;;;;;6.80;1.60;;;;;;;28.89;27.17;99082.16;105285;1263;61065;-23
2023/09/11 10:40:30;;;;;;;6.00;1.80;;;;;;;29.18;26.89;99078.65;105290;1262;61112;-24
2023/09/11 10:42:58;;;;;;;4.60;1.60;;;;;;;29.56;26.27;99076.27;105259;1264;71825;-24
2023/09/11 10:45:27;;;;;;;8.60;1.70;;;;;;;29.96;25.71;99080.70;105645;1260;74501;-23
2023/09/11 10:47:55;;;;;;;3.30;1.80;;;;;;;30.21;25.11;99075.08;105355;1257;75441;-23
2023/09/11 10:50:24;;;;;;;5.30;1.40;;;;;;;29.77;25.30;99070.56;105461;1259;61856;-23
2023/09/11 10:52:55;;;;;;;3.60;1.40;;;;;;;29.76;25.90;99071.36;105574;1254;61058;-23
2023/09/11 10:55:23;;;;;;;4.30;1.80;;;;;;;30.05;25.53;99069.48;105607;1256;73916;-22
2023/09/11 10:57:53;;;;;;;4.70;1.20;;;;;;;30.35;25.11;99063.46;105352;1262;73047;-23
2023/09/11 11:00:21;;;;;;;7.80;1.80;;;;;;;30.23;25.06;99061.86;105282;1258;72687;-23
2023/09/11 11:02:50;;;;;;;3.50;1.20;;;;;;;30.44;25.38;99059.84;105645;1260;61362;-24
2023/09/11 11:05:18;;;;;;;3.70;1.20;;;;;;;30.56;24.85;99057.48;105532;1261;61123;-22
2023/09/11 11:07:49;;;;;;;4.00;1.40;;;;;;;30.75;24.22;99051.11;105652;1259;65638;-22
2023/09/11 11:10:17;;;;;;;3.40;1.30;;;;;;;30.83;24.28;99047.85;105550;1262;68191;-22
2023/09/11 11:12:45;;;;;;;4.90;1.50;;;;;;;30.96;23.80;99045.66;105637;1269;63828;-22
2023/09/11 11:15:21;;;;;;;5.10;1.50;;;;;;;30.86;23.84;99042.70;105661;1259;61186;-22
2023/09/11 11:18:12;;;;;;;1.60;0.90;;;;;;;29.77;24.71;99042.43;105592;1257;61056;-22
2023/09/11 11:20:59;;;;;;;3.60;1.10;;;;;;;30.31;25.37;99039.42;105591;1260;73083;-22
2023/09/11 11:23:31;;;;;;;2.90;1.50;;;;;;;30.82;24.85;99037.95;105489;1259;65634;-23
2023/09/11 11:26:06;;;;;;;5.10;1.70;;;;;;;31.08;24.58;99036.63;105304;1257;66649;-23
2023/09/11 11:28:39;;;;;;;1.80;1.00;;;;;;;31.08;23.92;99033.21;105232;1257;61217;-23
2023/09/11 11:31:08;;;;;;;3.30;1.70;;;;;;;29.81;24.71;99034.36;105276;1262;61234;-23
2023/09/11 11:33:39;;;;;;;3.40;1.30;;;;;;;29.09;26.64;99033.41;105671;1259;75703;-23